createdAt,value
2016-09-22T00:00:41.669Z,-90
2016-09-22T00:01:41.635Z,-91
2016-09-22T00:02:41.811Z,-91
2016-09-22T00:03:41.731Z,-91
2016-09-22T00:04:41.820Z,-91
2016-09-22T00:05:41.721Z,-90
2016-09-22T00:06:41.613Z,-90
2016-09-22T00:07:41.759Z,-90
2016-09-22T00:08:41.997Z,-91
2016-09-22T00:09:41.708Z,-90
2016-09-22T00:10:41.732Z,-91
2016-09-22T00:11:41.696Z,-91
2016-09-22T00:12:42.009Z,-91
2016-09-22T00:13:42.011Z,-91
2016-09-22T00:14:41.649Z,-90
2016-09-22T00:15:41.863Z,-91
2016-09-22T00:16:41.901Z,-91
2016-09-22T00:17:41.924Z,-91
2016-09-22T00:18:41.974Z,-90
2016-09-22T00:19:41.676Z,-91
2016-09-22T00:20:41.742Z,-91
2016-09-22T00:21:41.748Z,-90
2016-09-22T00:22:41.928Z,-90
2016-09-22T00:23:41.947Z,-90
2016-09-22T00:24:41.710Z,-91
2016-09-22T00:25:41.662Z,-91
2016-09-22T00:26:42.050Z,-90
2016-09-22T00:27:42.054Z,-90
2016-09-22T00:28:41.962Z,-91
2016-09-22T00:29:41.959Z,-90
2016-09-22T00:30:41.906Z,-90
2016-09-22T00:31:41.954Z,-90
2016-09-22T00:32:41.921Z,-90
2016-09-22T00:33:41.970Z,-91
2016-09-22T00:34:41.951Z,-90
2016-09-22T00:35:41.953Z,-90
2016-09-22T00:36:41.821Z,-90
2016-09-22T00:37:41.799Z,-91
2016-09-22T00:38:42.076Z,-91
2016-09-22T00:39:41.756Z,-90
2016-09-22T00:40:41.685Z,-90
2016-09-22T00:41:41.845Z,-90
2016-09-22T00:42:41.895Z,-91
2016-09-22T00:43:41.943Z,-91
2016-09-22T00:44:42.068Z,-89
2016-09-22T00:45:41.918Z,-90
2016-09-22T00:46:41.973Z,-89
2016-09-22T00:47:41.965Z,-90
2016-09-22T00:48:41.946Z,-91
2016-09-22T00:49:41.988Z,-90
2016-09-22T00:50:42.148Z,-91
2016-09-22T00:51:41.771Z,-90
2016-09-22T00:52:41.713Z,-90
2016-09-22T00:53:42.004Z,-91
2016-09-22T00:54:41.848Z,-91
2016-09-22T00:55:41.859Z,-91
2016-09-22T00:56:42.038Z,-90
2016-09-22T00:57:41.917Z,-91
2016-09-22T00:58:41.930Z,-91
2016-09-22T00:59:41.924Z,-91
2016-09-22T01:00:42.285Z,-91
2016-09-22T01:01:41.912Z,-91
2016-09-22T01:02:42.009Z,-90
2016-09-22T01:03:41.866Z,-91
2016-09-22T01:04:42.019Z,-90
2016-09-22T01:05:42.159Z,-90
2016-09-22T01:06:42.057Z,-91
2016-09-22T01:07:41.905Z,-91
2016-09-22T01:08:42.069Z,-91
2016-09-22T01:09:41.935Z,-91
2016-09-22T01:10:42.021Z,-91
2016-09-22T01:11:42.084Z,-90
2016-09-22T01:12:41.930Z,-91
2016-09-22T01:13:42.018Z,-90
2016-09-22T01:14:41.981Z,-91
2016-09-22T01:15:41.934Z,-91
2016-09-22T01:16:42.102Z,-90
2016-09-22T01:17:42.182Z,-90
2016-09-22T01:18:41.893Z,-90
2016-09-22T01:19:41.932Z,-91
2016-09-22T01:20:41.850Z,-90
2016-09-22T01:21:42.093Z,-91
2016-09-22T01:22:42.130Z,-91
2016-09-22T01:23:41.931Z,-90
2016-09-22T01:24:42.118Z,-91
2016-09-22T01:25:42.234Z,-91
2016-09-22T01:26:41.973Z,-91
2016-09-22T01:27:42.047Z,-91
2016-09-22T01:28:41.991Z,-92
2016-09-22T01:29:42.237Z,-90
2016-09-22T01:30:42.106Z,-91
2016-09-22T01:31:42.077Z,-91
2016-09-22T01:32:42.140Z,-91
2016-09-22T01:33:42.129Z,-91
2016-09-22T01:34:41.995Z,-91
2016-09-22T01:35:41.994Z,-91
2016-09-22T01:36:41.961Z,-91
2016-09-22T01:37:41.815Z,-91
2016-09-22T01:38:42.151Z,-90
2016-09-22T01:39:41.959Z,-91
2016-09-22T01:40:41.973Z,-90
2016-09-22T01:41:41.831Z,-91
2016-09-22T01:42:42.124Z,-91
2016-09-22T01:43:42.139Z,-91
2016-09-22T01:44:41.877Z,-91
2016-09-22T01:45:42.022Z,-91
2016-09-22T01:46:42.149Z,-91
2016-09-22T01:47:42.124Z,-91
2016-09-22T01:48:42.235Z,-91
2016-09-22T01:49:42.006Z,-90
2016-09-22T01:50:42.042Z,-92
2016-09-22T01:51:42.075Z,-90
2016-09-22T01:52:42.052Z,-90
2016-09-22T01:53:42.287Z,-91
2016-09-22T01:54:42.203Z,-91
2016-09-22T01:55:42.207Z,-91
2016-09-22T01:56:41.891Z,-91
2016-09-22T01:57:42.080Z,-91
2016-09-22T01:58:42.190Z,-91
2016-09-22T01:59:42.223Z,-91
2016-09-22T02:00:42.303Z,-90
2016-09-22T02:01:42.074Z,-90
2016-09-22T02:02:42.185Z,-91
2016-09-22T02:03:42.067Z,-91
2016-09-22T02:04:42.305Z,-91
2016-09-22T02:05:42.213Z,-91
2016-09-22T02:06:42.322Z,-92
2016-09-22T02:07:41.924Z,-91
2016-09-22T02:08:42.186Z,-91
2016-09-22T02:09:42.199Z,-91
2016-09-22T02:10:42.173Z,-91
2016-09-22T02:11:42.198Z,-91
2016-09-22T02:12:42.181Z,-91
2016-09-22T02:13:42.190Z,-90
2016-09-22T02:14:42.242Z,-90
2016-09-22T02:15:42.123Z,-91
2016-09-22T02:16:42.200Z,-90
2016-09-22T02:17:42.068Z,-90
2016-09-22T02:18:42.074Z,-91
2016-09-22T02:19:42.214Z,-90
2016-09-22T02:20:42.243Z,-90
2016-09-22T02:21:42.086Z,-91
2016-09-22T02:22:42.125Z,-91
2016-09-22T02:23:42.130Z,-90
2016-09-22T02:24:42.224Z,-91
2016-09-22T02:25:42.118Z,-90
2016-09-22T02:26:42.148Z,-90
2016-09-22T02:27:42.132Z,-91
2016-09-22T02:28:41.951Z,-90
2016-09-22T02:29:42.152Z,-91
2016-09-22T02:30:41.968Z,-90
2016-09-22T02:31:42.170Z,-91
2016-09-22T02:32:42.113Z,-91
2016-09-22T02:33:42.118Z,-91
2016-09-22T02:34:42.409Z,-90
2016-09-22T02:35:42.140Z,-91
2016-09-22T02:36:42.433Z,-90
2016-09-22T02:37:42.044Z,-91
2016-09-22T02:38:42.151Z,-91
2016-09-22T02:39:42.132Z,-91
2016-09-22T02:40:42.140Z,-91
2016-09-22T02:41:42.413Z,-91
2016-09-22T02:42:42.147Z,-90
2016-09-22T02:43:42.309Z,-91
2016-09-22T02:44:42.316Z,-90
2016-09-22T02:45:42.126Z,-91
2016-09-22T02:46:42.142Z,-90
2016-09-22T02:47:42.454Z,-91
2016-09-22T02:48:42.242Z,-91
2016-09-22T02:49:42.196Z,-90
2016-09-22T02:50:42.350Z,-90
2016-09-22T02:51:42.198Z,-90
2016-09-22T02:52:42.564Z,-90
2016-09-22T02:53:42.348Z,-90
2016-09-22T02:54:42.343Z,-91
2016-09-22T02:55:42.161Z,-91
2016-09-22T02:56:42.227Z,-91
2016-09-22T02:57:42.334Z,-91
2016-09-22T02:58:42.350Z,-91
2016-09-22T02:59:42.345Z,-91
2016-09-22T03:00:42.138Z,-91
2016-09-22T03:01:42.315Z,-91
2016-09-22T03:02:42.205Z,-91
2016-09-22T03:03:42.375Z,-90
2016-09-22T03:04:42.208Z,-91
2016-09-22T03:05:42.243Z,-90
2016-09-22T03:06:42.473Z,-91
2016-09-22T03:07:42.283Z,-91
2016-09-22T03:08:42.571Z,-91
2016-09-22T03:09:42.348Z,-91
2016-09-22T03:10:42.259Z,-91
2016-09-22T03:11:42.354Z,-91
2016-09-22T03:12:42.120Z,-91
2016-09-22T03:13:42.268Z,-91
2016-09-22T03:14:42.588Z,-91
2016-09-22T03:15:42.370Z,-91
2016-09-22T03:16:42.265Z,-91
2016-09-22T03:17:42.407Z,-91
2016-09-22T03:18:42.123Z,-91
2016-09-22T03:19:42.132Z,-91
2016-09-22T03:20:42.558Z,-91
2016-09-22T03:21:42.252Z,-92
2016-09-22T03:22:42.433Z,-90
2016-09-22T03:23:42.248Z,-91
2016-09-22T03:24:42.585Z,-91
2016-09-22T03:25:42.298Z,-91
2016-09-22T03:26:42.425Z,-90
2016-09-22T03:27:42.421Z,-91
2016-09-22T03:28:42.340Z,-91
2016-09-22T03:29:42.339Z,-91
2016-09-22T03:30:42.340Z,-91
2016-09-22T03:31:42.600Z,-91
2016-09-22T03:32:42.622Z,-91
2016-09-22T03:33:42.454Z,-90
2016-09-22T03:34:42.321Z,-88
2016-09-22T03:35:42.574Z,-91
2016-09-22T03:36:42.224Z,-90
2016-09-22T03:37:42.231Z,-90
2016-09-22T03:38:42.443Z,-90
2016-09-22T03:39:42.163Z,-90
2016-09-22T03:40:42.596Z,-90
2016-09-22T03:41:42.341Z,-90
2016-09-22T03:42:42.235Z,-90
2016-09-22T03:43:42.451Z,-91
2016-09-22T03:44:42.244Z,-90
2016-09-22T03:45:42.413Z,-90
2016-09-22T03:46:42.881Z,-90
2016-09-22T03:47:42.489Z,-90
2016-09-22T03:48:42.498Z,-90
2016-09-22T03:49:42.609Z,-90
2016-09-22T03:50:42.481Z,-90
2016-09-22T03:51:42.494Z,-90
2016-09-22T03:52:42.606Z,-90
2016-09-22T03:53:42.379Z,-89
2016-09-22T03:54:42.526Z,-90
2016-09-22T03:55:42.338Z,-90
2016-09-22T03:56:42.492Z,-90
2016-09-22T03:57:42.340Z,-91
2016-09-22T03:58:42.551Z,-90
2016-09-22T03:59:42.482Z,-90
2016-09-22T04:00:42.631Z,-90
2016-09-22T04:01:42.496Z,-89
2016-09-22T04:02:42.322Z,-91
2016-09-22T04:03:42.383Z,-90
2016-09-22T04:04:42.642Z,-90
2016-09-22T04:05:42.259Z,-89
2016-09-22T04:06:42.272Z,-90
2016-09-22T04:07:42.531Z,-90
2016-09-22T04:08:42.433Z,-90
2016-09-22T04:09:42.285Z,-91
2016-09-22T04:10:42.547Z,-90
2016-09-22T04:11:42.655Z,-91
2016-09-22T04:12:42.853Z,-90
2016-09-22T04:13:42.239Z,-90
2016-09-22T04:14:42.452Z,-90
2016-09-22T04:15:42.572Z,-90
2016-09-22T04:16:42.563Z,-90
2016-09-22T04:17:42.428Z,-90
2016-09-22T04:18:42.584Z,-90
2016-09-22T04:19:42.581Z,-91
2016-09-22T04:20:42.631Z,-90
2016-09-22T04:21:42.701Z,-90
2016-09-22T04:22:42.575Z,-90
2016-09-22T04:23:42.464Z,-91
2016-09-22T04:24:42.688Z,-90
2016-09-22T04:25:42.415Z,-90
2016-09-22T04:26:42.564Z,-90
2016-09-22T04:27:42.339Z,-91
2016-09-22T04:28:42.764Z,-90
2016-09-22T04:29:42.529Z,-91
2016-09-22T04:30:42.723Z,-90
2016-09-22T04:31:42.427Z,-91
2016-09-22T04:32:42.366Z,-90
2016-09-22T04:33:42.717Z,-90
2016-09-22T04:34:42.617Z,-91
2016-09-22T04:35:42.441Z,-91
2016-09-22T04:36:42.587Z,-90
2016-09-22T04:37:42.479Z,-90
2016-09-22T04:38:42.746Z,-90
2016-09-22T04:39:42.506Z,-90
2016-09-22T04:40:42.317Z,-90
2016-09-22T04:41:42.603Z,-91
2016-09-22T04:42:42.634Z,-91
2016-09-22T04:43:42.401Z,-90
2016-09-22T04:44:42.796Z,-90
2016-09-22T04:45:42.405Z,-90
2016-09-22T04:46:42.600Z,-90
2016-09-22T04:47:42.637Z,-91
2016-09-22T04:48:42.357Z,-90
2016-09-22T04:49:42.665Z,-90
2016-09-22T04:50:42.701Z,-91
2016-09-22T04:51:42.574Z,-90
2016-09-22T04:52:42.632Z,-90
2016-09-22T04:53:42.798Z,-91
2016-09-22T04:54:42.569Z,-90
2016-09-22T04:55:42.433Z,-90
2016-09-22T04:56:42.550Z,-90
2016-09-22T04:57:42.694Z,-91
2016-09-22T04:58:42.641Z,-91
2016-09-22T04:59:42.493Z,-91
2016-09-22T05:00:42.722Z,-90
2016-09-22T05:01:42.507Z,-90
2016-09-22T05:02:42.652Z,-91
2016-09-22T05:03:42.691Z,-90
2016-09-22T05:04:42.695Z,-91
2016-09-22T05:05:42.801Z,-91
2016-09-22T05:06:42.581Z,-91
2016-09-22T05:07:42.584Z,-91
2016-09-22T05:08:42.605Z,-91
2016-09-22T05:09:42.698Z,-91
2016-09-22T05:10:42.538Z,-91
2016-09-22T05:11:42.434Z,-91
2016-09-22T05:12:42.579Z,-91
2016-09-22T05:13:42.397Z,-91
2016-09-22T05:14:42.563Z,-91
2016-09-22T05:15:42.684Z,-91
2016-09-22T05:16:42.519Z,-91
2016-09-22T05:17:42.598Z,-91
2016-09-22T05:18:42.552Z,-91
2016-09-22T05:19:42.630Z,-91
2016-09-22T05:20:42.746Z,-91
2016-09-22T05:21:42.546Z,-91
2016-09-22T05:22:42.505Z,-90
2016-09-22T05:23:42.570Z,-91
2016-09-22T05:24:42.566Z,-91
2016-09-22T05:25:42.722Z,-91
2016-09-22T05:26:42.749Z,-91
2016-09-22T05:27:42.820Z,-91
2016-09-22T05:28:42.589Z,-90
2016-09-22T05:29:42.615Z,-91
2016-09-22T05:30:42.633Z,-92
2016-09-22T05:31:42.689Z,-91
2016-09-22T05:32:42.718Z,-91
2016-09-22T05:33:42.495Z,-91
2016-09-22T05:34:42.747Z,-91
2016-09-22T05:35:42.758Z,-91
2016-09-22T05:36:42.611Z,-91
2016-09-22T05:37:42.472Z,-91
2016-09-22T05:38:42.684Z,-91
2016-09-22T05:39:42.769Z,-91
2016-09-22T05:40:42.701Z,-92
2016-09-22T05:41:42.670Z,-90
2016-09-22T05:42:42.860Z,-91
2016-09-22T05:43:42.533Z,-91
2016-09-22T05:44:42.811Z,-91
2016-09-22T05:45:42.948Z,-90
2016-09-22T05:46:42.677Z,-91
2016-09-22T05:47:42.821Z,-91
2016-09-22T05:48:43.048Z,-91
2016-09-22T05:49:42.740Z,-91
2016-09-22T05:50:42.945Z,-91
2016-09-22T05:51:42.695Z,-91
2016-09-22T05:52:42.790Z,-90
2016-09-22T05:53:42.840Z,-91
2016-09-22T05:54:42.941Z,-91
2016-09-22T05:55:42.948Z,-90
2016-09-22T05:56:42.828Z,-91
2016-09-22T05:57:42.716Z,-91
2016-09-22T05:58:42.840Z,-91
2016-09-22T05:59:42.775Z,-91
2016-09-22T06:00:42.823Z,-91
2016-09-22T06:01:42.995Z,-92
2016-09-22T06:02:42.902Z,-90
2016-09-22T06:03:42.771Z,-84
2016-09-22T06:04:42.923Z,-84
2016-09-22T06:05:42.853Z,-84
2016-09-22T06:06:42.720Z,-84
2016-09-22T06:07:42.731Z,-84
2016-09-22T06:08:42.780Z,-84
2016-09-22T06:09:42.606Z,-84
2016-09-22T06:10:42.916Z,-84
2016-09-22T06:11:42.874Z,-84
2016-09-22T06:12:42.798Z,-84
2016-09-22T06:13:43.007Z,-84
2016-09-22T06:14:42.885Z,-84
2016-09-22T06:15:43.015Z,-85
2016-09-22T06:16:42.853Z,-84
2016-09-22T06:17:43.037Z,-84
2016-09-22T06:18:43.016Z,-84
2016-09-22T06:19:43.017Z,-84
2016-09-22T06:20:43.018Z,-84
2016-09-22T06:21:42.776Z,-84
2016-09-22T06:22:42.895Z,-85
2016-09-22T06:23:42.723Z,-85
2016-09-22T06:24:42.885Z,-83
2016-09-22T06:25:42.637Z,-84
2016-09-22T06:26:42.965Z,-84
2016-09-22T06:27:42.653Z,-84
2016-09-22T06:28:42.816Z,-84
2016-09-22T06:29:42.756Z,-85
2016-09-22T06:30:42.920Z,-85
2016-09-22T06:31:42.954Z,-84
2016-09-22T06:32:42.910Z,-83
2016-09-22T06:33:42.808Z,-84
2016-09-22T06:34:42.829Z,-85
2016-09-22T06:35:42.869Z,-84
2016-09-22T06:36:43.044Z,-84
2016-09-22T06:37:42.781Z,-84
2016-09-22T06:38:42.777Z,-84
2016-09-22T06:39:42.850Z,-85
2016-09-22T06:40:42.978Z,-85
2016-09-22T06:41:42.871Z,-84
2016-09-22T06:42:42.736Z,-85
2016-09-22T06:43:42.981Z,-84
2016-09-22T06:44:42.852Z,-84
2016-09-22T06:45:42.827Z,-84
2016-09-22T06:46:42.860Z,-84
2016-09-22T06:47:42.911Z,-85
2016-09-22T06:48:42.867Z,-85
2016-09-22T06:49:42.904Z,-84
2016-09-22T06:50:42.823Z,-85
2016-09-22T06:51:43.089Z,-85
2016-09-22T06:52:43.132Z,-85
2016-09-22T06:53:43.130Z,-86
2016-09-22T06:54:43.459Z,-85
2016-09-22T06:55:42.873Z,-86
2016-09-22T06:56:42.970Z,-85
2016-09-22T06:57:42.862Z,-85
2016-09-22T06:58:43.067Z,-86
2016-09-22T06:59:43.016Z,-85
2016-09-22T07:00:42.911Z,-86
2016-09-22T07:01:43.035Z,-96
2016-09-22T07:02:43.057Z,-95
2016-09-22T07:03:42.944Z,-96
2016-09-22T07:04:43.468Z,-96
2016-09-22T07:05:43.076Z,-95
2016-09-22T07:06:42.932Z,-96
2016-09-22T07:07:43.161Z,-96
2016-09-22T07:08:43.162Z,-96
2016-09-22T07:09:43.148Z,-96
2016-09-22T07:10:43.070Z,-96
2016-09-22T07:11:43.031Z,-92
2016-09-22T07:12:43.173Z,-92
2016-09-22T07:13:42.818Z,-93
2016-09-22T07:14:43.567Z,-94
2016-09-22T07:15:43.081Z,-87
2016-09-22T07:16:42.813Z,-88
2016-09-22T07:17:42.996Z,-92
2016-09-22T07:18:42.967Z,-92
2016-09-22T07:19:43.475Z,-93
2016-09-22T07:20:42.899Z,-93
2016-09-22T07:21:43.072Z,-94
2016-09-22T07:22:43.200Z,-95
2016-09-22T07:23:43.204Z,-95
2016-09-22T07:24:43.177Z,-92
2016-09-22T07:25:42.955Z,-93
2016-09-22T07:26:43.859Z,-92
2016-09-22T07:27:43.083Z,-93
2016-09-22T07:28:43.226Z,-94
2016-09-22T07:29:43.084Z,-93
2016-09-22T07:30:43.298Z,-92
2016-09-22T07:31:43.003Z,-93
2016-09-22T07:32:43.006Z,-94
2016-09-22T07:33:43.141Z,-94
2016-09-22T07:34:43.232Z,-93
2016-09-22T07:35:43.021Z,-94
2016-09-22T07:36:43.108Z,-94
2016-09-22T07:37:43.134Z,-94
2016-09-22T07:38:43.001Z,-92
2016-09-22T07:39:43.128Z,-92
2016-09-22T07:40:43.197Z,-92
2016-09-22T07:41:43.123Z,-93
2016-09-22T07:42:42.870Z,-94
2016-09-22T07:43:43.138Z,-93
2016-09-22T07:44:42.997Z,-92
2016-09-22T07:45:42.869Z,-93
2016-09-22T07:46:43.239Z,-94
2016-09-22T07:47:43.159Z,-93
2016-09-22T07:48:43.190Z,-92
2016-09-22T07:49:42.916Z,-94
2016-09-22T07:50:43.159Z,-92
2016-09-22T07:51:43.094Z,-92
2016-09-22T07:52:43.049Z,-94
2016-09-22T07:53:43.180Z,-94
2016-09-22T07:54:43.045Z,-95
2016-09-22T07:55:43.157Z,-92
2016-09-22T07:56:43.180Z,-93
2016-09-22T07:57:43.240Z,-95
2016-09-22T07:58:43.198Z,-96
2016-09-22T07:59:43.085Z,-94
2016-09-22T08:00:43.241Z,-94
2016-09-22T08:01:43.162Z,-92
2016-09-22T08:02:43.294Z,-92
2016-09-22T08:03:43.131Z,-89
2016-09-22T08:04:42.919Z,-94
2016-09-22T08:05:43.230Z,-94
2016-09-22T08:06:43.173Z,-93
2016-09-22T08:07:43.163Z,-93
2016-09-22T08:08:43.413Z,-94
2016-09-22T08:09:43.219Z,-93
2016-09-22T08:10:43.231Z,-94
2016-09-22T08:11:43.142Z,-93
2016-09-22T08:12:43.637Z,-93
2016-09-22T08:13:43.253Z,-94
2016-09-22T08:14:43.318Z,-93
2016-09-22T08:15:43.168Z,-94
2016-09-22T08:16:43.216Z,-94
2016-09-22T08:17:43.201Z,-95
2016-09-22T08:18:43.187Z,-94
2016-09-22T08:19:43.132Z,-92
2016-09-22T08:20:43.119Z,-92
2016-09-22T08:21:43.171Z,-92
2016-09-22T08:22:43.138Z,-92
2016-09-22T08:23:43.400Z,-92
2016-09-22T08:24:43.148Z,-92
2016-09-22T08:25:43.122Z,-92
2016-09-22T08:26:43.114Z,-92
2016-09-22T08:27:43.328Z,-92
2016-09-22T08:28:43.394Z,-93
2016-09-22T08:29:43.264Z,-93
2016-09-22T08:30:42.980Z,-92
2016-09-22T08:31:43.180Z,-90
2016-09-22T08:32:43.269Z,-92
2016-09-22T08:33:43.178Z,-91
2016-09-22T08:34:43.231Z,-93
2016-09-22T08:35:43.508Z,-92
2016-09-22T08:36:43.225Z,-94
2016-09-22T08:37:44.092Z,-94
2016-09-22T08:38:43.331Z,-92
2016-09-22T08:39:43.278Z,-92
2016-09-22T08:40:43.282Z,-89
2016-09-22T08:41:44.505Z,-92
2016-09-22T08:42:44.779Z,-91
2016-09-22T08:43:45.709Z,-94
2016-09-22T08:44:44.789Z,-94
2016-09-22T08:45:44.474Z,-93
2016-09-22T08:46:43.799Z,-93
2016-09-22T08:47:43.499Z,-92
2016-09-22T08:48:44.695Z,-89
2016-09-22T08:49:43.548Z,-89
2016-09-22T08:50:43.983Z,-89
2016-09-22T08:51:43.151Z,-93
2016-09-22T08:52:44.542Z,-91
2016-09-22T08:53:43.668Z,-91
2016-09-22T08:54:43.227Z,-91
2016-09-22T08:55:43.620Z,-90
2016-09-22T08:56:44.125Z,-91
2016-09-22T08:57:44.501Z,-93
2016-09-22T08:58:44.155Z,-92
2016-09-22T08:59:43.496Z,-91
2016-09-22T09:00:43.700Z,-91
2016-09-22T09:01:43.351Z,-91
2016-09-22T09:02:43.211Z,-92
2016-09-22T09:03:43.579Z,-93
2016-09-22T09:04:43.361Z,-91
2016-09-22T09:05:43.139Z,-92
2016-09-22T09:06:43.539Z,-91
2016-09-22T09:07:43.466Z,-92
2016-09-22T09:08:43.220Z,-93
2016-09-22T09:09:43.369Z,-89
2016-09-22T09:10:44.455Z,-88
2016-09-22T09:11:43.720Z,-89
2016-09-22T09:12:43.287Z,-89
2016-09-22T09:13:43.568Z,-89
2016-09-22T09:14:43.289Z,-89
2016-09-22T09:15:43.433Z,-88
2016-09-22T09:16:43.709Z,-89
2016-09-22T09:17:43.478Z,-89
2016-09-22T09:18:43.584Z,-89
2016-09-22T09:19:43.471Z,-91
2016-09-22T09:20:43.298Z,-91
2016-09-22T09:21:43.403Z,-89
2016-09-22T09:22:43.343Z,-89
2016-09-22T09:23:43.412Z,-90
2016-09-22T09:24:43.404Z,-90
2016-09-22T09:25:43.191Z,-91
2016-09-22T09:26:43.450Z,-88
2016-09-22T09:27:43.468Z,-90
2016-09-22T09:28:43.471Z,-90
2016-09-22T09:29:43.357Z,-90
2016-09-22T09:30:43.511Z,-87
2016-09-22T09:31:44.042Z,-91
2016-09-22T09:32:43.756Z,-93
2016-09-22T09:33:43.559Z,-92
2016-09-22T09:34:43.213Z,-92
2016-09-22T09:35:43.362Z,-92
2016-09-22T09:36:47.687Z,-93
2016-09-22T09:37:43.273Z,-93
2016-09-22T09:38:44.324Z,-94
2016-09-22T09:39:43.703Z,-93
2016-09-22T09:40:43.697Z,-93
2016-09-22T09:41:43.539Z,-93
2016-09-22T09:42:43.563Z,-91
2016-09-22T09:43:43.628Z,-94
2016-09-22T09:44:43.340Z,-93
2016-09-22T09:45:43.440Z,-93
2016-09-22T09:46:43.511Z,-93
2016-09-22T09:47:43.346Z,-92
2016-09-22T09:48:43.618Z,-91
2016-09-22T09:49:43.522Z,-92
2016-09-22T09:50:43.433Z,-92
2016-09-22T09:51:43.610Z,-93
2016-09-22T09:52:43.592Z,-93
2016-09-22T09:53:43.287Z,-93
2016-09-22T09:54:43.478Z,-92
2016-09-22T09:55:43.508Z,-93
2016-09-22T09:56:43.355Z,-93
2016-09-22T09:57:43.571Z,-93
2016-09-22T09:58:43.546Z,-94
2016-09-22T09:59:43.451Z,-94
2016-09-22T10:00:43.564Z,-93
2016-09-22T10:01:43.442Z,-94
2016-09-22T10:02:43.547Z,-93
2016-09-22T10:03:43.546Z,-94
2016-09-22T10:04:45.229Z,-95
2016-09-22T10:05:43.555Z,-94
2016-09-22T10:06:43.560Z,-94
2016-09-22T10:07:43.592Z,-93
2016-09-22T10:08:43.442Z,-90
2016-09-22T10:09:43.919Z,-94
2016-09-22T10:10:43.563Z,-94
2016-09-22T10:11:43.518Z,-93
2016-09-22T10:12:43.802Z,-94
2016-09-22T10:13:43.585Z,-95
2016-09-22T10:14:43.592Z,-93
2016-09-22T10:15:43.935Z,-91
2016-09-22T10:16:43.468Z,-94
2016-09-22T10:17:43.696Z,-93
2016-09-22T10:18:43.909Z,-92
2016-09-22T10:19:43.596Z,-93
2016-09-22T10:20:44.249Z,-92
2016-09-22T10:21:43.718Z,-93
2016-09-22T10:22:43.674Z,-93
2016-09-22T10:23:43.597Z,-96
2016-09-22T10:24:44.775Z,-96
2016-09-22T10:25:47.956Z,-95
2016-09-22T10:26:43.862Z,-95
2016-09-22T10:27:43.549Z,-95
2016-09-22T10:28:43.595Z,-95
2016-09-22T10:29:43.711Z,-95
2016-09-22T10:30:43.672Z,-95
2016-09-22T10:31:43.709Z,-95
2016-09-22T10:32:43.676Z,-94
2016-09-22T10:33:43.888Z,-95
2016-09-22T10:34:43.390Z,-94
2016-09-22T10:35:43.624Z,-91
2016-09-22T10:36:43.860Z,-91
2016-09-22T10:37:43.715Z,-94
2016-09-22T10:38:43.727Z,-94
2016-09-22T10:39:43.814Z,-93
2016-09-22T10:40:43.398Z,-92
2016-09-22T10:41:44.035Z,-93
2016-09-22T10:42:43.757Z,-94
2016-09-22T10:43:43.589Z,-93
2016-09-22T10:44:43.459Z,-93
2016-09-22T10:45:43.788Z,-94
2016-09-22T10:46:43.468Z,-93
2016-09-22T10:47:43.976Z,-93
2016-09-22T10:48:52.089Z,-94
2016-09-22T10:49:43.675Z,-94
2016-09-22T10:50:43.707Z,-93
2016-09-22T10:51:43.612Z,-93
2016-09-22T10:52:44.056Z,-93
2016-09-22T10:53:43.493Z,-92
2016-09-22T10:54:43.692Z,-94
2016-09-22T10:55:44.417Z,-94
2016-09-22T10:56:44.263Z,-93
2016-09-22T10:57:44.051Z,-92
2016-09-22T10:58:43.733Z,-93
2016-09-22T10:59:43.845Z,-92
2016-09-22T11:00:43.538Z,-91
2016-09-22T11:01:43.782Z,-93
2016-09-22T11:02:43.821Z,-93
2016-09-22T11:03:43.951Z,-92
2016-09-22T11:04:44.317Z,-93
2016-09-22T11:05:43.633Z,-92
2016-09-22T11:06:43.700Z,-92
2016-09-22T11:07:43.960Z,-93
2016-09-22T11:08:43.751Z,-92
2016-09-22T11:09:43.518Z,-92
2016-09-22T11:10:43.686Z,-93
2016-09-22T11:11:44.552Z,-92
2016-09-22T11:12:43.554Z,-91
2016-09-22T11:13:44.205Z,-92
2016-09-22T11:14:43.643Z,-92
2016-09-22T11:15:43.692Z,-92
2016-09-22T11:16:43.791Z,-91
2016-09-22T11:17:43.536Z,-91
2016-09-22T11:18:43.810Z,-92
2016-09-22T11:19:43.783Z,-90
2016-09-22T11:20:43.812Z,-90
2016-09-22T11:21:43.753Z,-91
2016-09-22T11:22:43.788Z,-91
2016-09-22T11:23:43.762Z,-90
2016-09-22T11:24:43.834Z,-91
2016-09-22T11:25:43.698Z,-90
2016-09-22T11:26:43.632Z,-92
2016-09-22T11:27:43.604Z,-91
2016-09-22T11:28:43.886Z,-91
2016-09-22T11:29:43.961Z,-92
2016-09-22T11:30:43.722Z,-91
2016-09-22T11:31:43.559Z,-91
2016-09-22T11:32:43.753Z,-91
2016-09-22T11:33:43.726Z,-91
2016-09-22T11:34:43.979Z,-92
2016-09-22T11:35:44.171Z,-92
2016-09-22T11:36:43.899Z,-89
2016-09-22T11:37:43.944Z,-90
2016-09-22T11:38:43.915Z,-90
2016-09-22T11:39:43.734Z,-93
2016-09-22T11:40:44.229Z,-93
2016-09-22T11:41:46.242Z,-91
2016-09-22T11:42:43.670Z,-94
2016-09-22T11:43:43.719Z,-92
2016-09-22T11:44:43.785Z,-92
2016-09-22T11:45:43.735Z,-93
2016-09-22T11:46:44.064Z,-91
2016-09-22T11:47:43.972Z,-91
2016-09-22T11:48:43.691Z,-94
2016-09-22T11:49:44.473Z,-94
2016-09-22T11:50:43.760Z,-93
2016-09-22T11:51:44.046Z,-94
2016-09-22T11:52:43.781Z,-94
2016-09-22T11:53:43.864Z,-94
2016-09-22T11:54:43.835Z,-95
2016-09-22T11:55:44.047Z,-92
2016-09-22T11:56:43.836Z,-93
2016-09-22T11:57:45.225Z,-94
2016-09-22T11:58:43.903Z,-94
2016-09-22T11:59:43.682Z,-94
2016-09-22T12:00:43.828Z,-93
2016-09-22T12:01:43.996Z,-94
2016-09-22T12:02:43.824Z,-94
2016-09-22T12:03:44.060Z,-95
2016-09-22T12:04:43.952Z,-96
2016-09-22T12:05:44.087Z,-96
2016-09-22T12:06:45.428Z,-94
2016-09-22T12:07:43.933Z,-95
2016-09-22T12:08:43.846Z,-93
2016-09-22T12:09:43.950Z,-94
2016-09-22T12:10:44.101Z,-93
2016-09-22T12:11:44.134Z,-93
2016-09-22T12:12:44.345Z,-94
2016-09-22T12:13:44.151Z,-95
2016-09-22T12:14:44.091Z,-94
2016-09-22T12:15:43.894Z,-94
2016-09-22T12:16:43.814Z,-94
2016-09-22T12:17:44.065Z,-94
2016-09-22T12:18:43.981Z,-94
2016-09-22T12:19:43.896Z,-94
2016-09-22T12:20:43.826Z,-94
2016-09-22T12:21:43.928Z,-93
2016-09-22T12:22:44.075Z,-94
2016-09-22T12:23:44.155Z,-91
2016-09-22T12:24:43.960Z,-94
2016-09-22T12:25:44.033Z,-95
2016-09-22T12:26:43.862Z,-94
2016-09-22T12:27:43.921Z,-93
2016-09-22T12:28:44.661Z,-93
2016-09-22T12:29:43.933Z,-93
2016-09-22T12:30:43.820Z,-94
2016-09-22T12:31:43.977Z,-94
2016-09-22T12:32:44.678Z,-92
2016-09-22T12:33:44.061Z,-95
2016-09-22T12:34:44.672Z,-94
2016-09-22T12:35:43.929Z,-93
2016-09-22T12:36:43.928Z,-90
2016-09-22T12:37:43.922Z,-91
2016-09-22T12:38:43.866Z,-91
2016-09-22T12:39:44.163Z,-93
2016-09-22T12:40:43.982Z,-95
2016-09-22T12:41:43.950Z,-93
2016-09-22T12:42:43.907Z,-94
2016-09-22T12:43:45.917Z,-93
2016-09-22T12:44:44.252Z,-94
2016-09-22T12:45:44.069Z,-94
2016-09-22T12:46:44.199Z,-94
2016-09-22T12:47:44.189Z,-93
2016-09-22T12:48:43.948Z,-95
2016-09-22T12:49:44.194Z,-96
2016-09-22T12:50:44.087Z,-95
2016-09-22T12:51:43.940Z,-95
2016-09-22T12:52:44.058Z,-95
2016-09-22T12:53:44.035Z,-94
2016-09-22T12:54:44.079Z,-94
2016-09-22T12:55:44.120Z,-95
2016-09-22T12:56:44.082Z,-95
2016-09-22T12:57:44.229Z,-95
2016-09-22T12:58:44.095Z,-93
2016-09-22T12:59:43.960Z,-94
2016-09-22T13:00:44.473Z,-94
2016-09-22T13:01:44.017Z,-95
2016-09-22T13:02:44.080Z,-93
2016-09-22T13:03:43.912Z,-94
2016-09-22T13:04:44.208Z,-94
2016-09-22T13:05:44.424Z,-92
2016-09-22T13:06:44.083Z,-95
2016-09-22T13:07:43.998Z,-94
2016-09-22T13:08:44.222Z,-90
2016-09-22T13:09:44.091Z,-93
2016-09-22T13:10:44.110Z,-93
2016-09-22T13:11:44.110Z,-92
2016-09-22T13:12:44.018Z,-93
2016-09-22T13:13:44.111Z,-94
2016-09-22T13:14:44.007Z,-94
2016-09-22T13:15:44.154Z,-93
2016-09-22T13:16:44.174Z,-94
2016-09-22T13:17:43.945Z,-94
2016-09-22T13:18:44.120Z,-93
2016-09-22T13:19:44.197Z,-93
2016-09-22T13:20:44.176Z,-93
2016-09-22T13:21:44.088Z,-93
2016-09-22T13:22:44.038Z,-94
2016-09-22T13:23:44.138Z,-94
2016-09-22T13:24:43.994Z,-94
2016-09-22T13:25:44.200Z,-93
2016-09-22T13:26:44.130Z,-93
2016-09-22T13:27:44.290Z,-91
2016-09-22T13:28:44.215Z,-93
2016-09-22T13:29:44.214Z,-91
2016-09-22T13:30:44.024Z,-93
2016-09-22T13:31:44.174Z,-90
2016-09-22T13:32:44.606Z,-92
2016-09-22T13:33:44.170Z,-93
2016-09-22T13:34:44.360Z,-92
2016-09-22T13:35:44.208Z,-92
2016-09-22T13:36:44.179Z,-93
2016-09-22T13:37:44.317Z,-93
2016-09-22T13:38:43.992Z,-92
2016-09-22T13:39:44.173Z,-94
2016-09-22T13:40:44.123Z,-94
2016-09-22T13:41:44.230Z,-92
2016-09-22T13:42:43.966Z,-93
2016-09-22T13:43:44.287Z,-93
2016-09-22T13:44:44.129Z,-92
2016-09-22T13:45:43.956Z,-92
2016-09-22T13:46:44.156Z,-92